Main page
METAR-TAF:

METAR-TAF

Airports :

Harbin, China

Harbin Taiping International Airport

latitude: 45-45N, longitude: 126-46E, elevation: 143 m

Current weather observation

The report was made 1 hour and 10 minutes ago, at 08:00 UTC
Wind 12 kt from the South/Southwest
Temperature 23°C
Humidity 33%
Pressure 1005 hPa
Visibility 10 km or more
no clouds below 1500 m and no cumulonimbus

METAR: ZYHB 230800Z 20006MPS CAVOK 23/06 Q1005 NOSIG

Time: 17:10 (09:10 UTC)

Forecast

The report was made 6 hours and 9 minutes ago, at 03:01 UTC
Forecast valid from 23 at 06 UTC to 24 at 06 UTC
Wind 12 kt from the South/Southwest with gusts up to 23 kt
Visibility: 6000 m
Few clouds at a height of 3000 ft

TAF: ZYHB 230301Z 2306/2406 20006G12MPS 6000 FEW030 TX23/2306Z TN13/2321Z

Weather observations and forecasts of more than 4000 airports (METAR and TAF reports).

The available stations are represented by yellow and red dots on the map.

Hover mouse over dot to see the name of the station.

Then click to see weather observations and forecasts.

To change the map : click on the green buttons with a black cross to zoom in, on the green button with a dash to zoom out, or on the green arrows for adjacent maps.


METAR-TAF: